sensor_id;sensor_type;location;lat;lon;timestamp;P1;durP1;ratioP1;P2;durP2;ratioP2
6269;SDS011;3168;51.684;6.954;2022-08-19T00:01:52;4.37;;;4.07;;
6269;SDS011;3168;51.684;6.954;2022-08-19T00:04:19;4.50;;;4.20;;
6269;SDS011;3168;51.684;6.954;2022-08-19T00:06:44;7.57;;;4.07;;
6269;SDS011;3168;51.684;6.954;2022-08-19T00:09:12;3.50;;;3.30;;
6269;SDS011;3168;51.684;6.954;2022-08-19T00:11:37;3.60;;;3.40;;
6269;SDS011;3168;51.684;6.954;2022-08-19T00:14:03;4.50;;;4.30;;
6269;SDS011;3168;51.684;6.954;2022-08-19T00:16:28;4.57;;;4.20;;
6269;SDS011;3168;51.684;6.954;2022-08-19T00:18:55;4.07;;;3.70;;
6269;SDS011;3168;51.684;6.954;2022-08-19T00:21:21;3.73;;;3.63;;
6269;SDS011;3168;51.684;6.954;2022-08-19T00:23:46;4.03;;;3.93;;
6269;SDS011;3168;51.684;6.954;2022-08-19T00:26:13;3.47;;;3.33;;
6269;SDS011;3168;51.684;6.954;2022-08-19T00:28:38;3.80;;;3.70;;
6269;SDS011;3168;51.684;6.954;2022-08-19T00:31:05;4.90;;;4.60;;
6269;SDS011;3168;51.684;6.954;2022-08-19T00:33:30;5.07;;;4.50;;
6269;SDS011;3168;51.684;6.954;2022-08-19T00:35:58;4.20;;;4.00;;
6269;SDS011;3168;51.684;6.954;2022-08-19T00:38:23;4.53;;;4.13;;
6269;SDS011;3168;51.684;6.954;2022-08-19T00:40:49;4.40;;;4.13;;
6269;SDS011;3168;51.684;6.954;2022-08-19T00:43:18;4.60;;;4.17;;
6269;SDS011;3168;51.684;6.954;2022-08-19T00:45:41;4.90;;;4.60;;
6269;SDS011;3168;51.684;6.954;2022-08-19T00:48:07;4.83;;;4.53;;
6269;SDS011;3168;51.684;6.954;2022-08-19T00:50:33;16.00;;;4.67;;
6269;SDS011;3168;51.684;6.954;2022-08-19T00:52:59;3.23;;;3.10;;
6269;SDS011;3168;51.684;6.954;2022-08-19T00:55:25;4.30;;;3.97;;
6269;SDS011;3168;51.684;6.954;2022-08-19T00:57:53;7.10;;;3.70;;
6269;SDS011;3168;51.684;6.954;2022-08-19T01:00:18;4.70;;;4.40;;
6269;SDS011;3168;51.684;6.954;2022-08-19T01:02:43;6.50;;;4.63;;
6269;SDS011;3168;51.684;6.954;2022-08-19T01:05:15;5.80;;;5.30;;
6269;SDS011;3168;51.684;6.954;2022-08-19T01:07:35;5.50;;;5.00;;
6269;SDS011;3168;51.684;6.954;2022-08-19T01:10:00;5.83;;;5.20;;
6269;SDS011;3168;51.684;6.954;2022-08-19T01:12:26;5.57;;;5.17;;
6269;SDS011;3168;51.684;6.954;2022-08-19T01:14:52;4.20;;;3.90;;
6269;SDS011;3168;51.684;6.954;2022-08-19T01:17:18;5.23;;;4.87;;
6269;SDS011;3168;51.684;6.954;2022-08-19T01:19:45;4.23;;;3.93;;
6269;SDS011;3168;51.684;6.954;2022-08-19T01:22:14;4.70;;;4.40;;
6269;SDS011;3168;51.684;6.954;2022-08-19T01:24:38;5.07;;;4.77;;
6269;SDS011;3168;51.684;6.954;2022-08-19T01:27:04;5.23;;;4.60;;
6269;SDS011;3168;51.684;6.954;2022-08-19T01:29:30;6.40;;;4.77;;
6269;SDS011;3168;51.684;6.954;2022-08-19T01:31:55;4.70;;;4.40;;
6269;SDS011;3168;51.684;6.954;2022-08-19T01:34:21;6.83;;;4.50;;
6269;SDS011;3168;51.684;6.954;2022-08-19T01:36:47;5.47;;;4.97;;
6269;SDS011;3168;51.684;6.954;2022-08-19T01:39:14;6.80;;;5.03;;
6269;SDS011;3168;51.684;6.954;2022-08-19T01:41:39;5.13;;;4.77;;
6269;SDS011;3168;51.684;6.954;2022-08-19T01:44:05;5.23;;;4.73;;
6269;SDS011;3168;51.684;6.954;2022-08-19T01:46:31;5.00;;;4.67;;
6269;SDS011;3168;51.684;6.954;2022-08-19T01:48:56;4.70;;;4.40;;
6269;SDS011;3168;51.684;6.954;2022-08-19T01:51:22;4.57;;;4.37;;
6269;SDS011;3168;51.684;6.954;2022-08-19T01:53:49;5.30;;;4.80;;
6269;SDS011;3168;51.684;6.954;2022-08-19T01:56:14;4.90;;;3.57;;
6269;SDS011;3168;51.684;6.954;2022-08-19T01:58:41;5.70;;;5.17;;
6269;SDS011;3168;51.684;6.954;2022-08-19T02:01:06;4.53;;;4.33;;
6269;SDS011;3168;51.684;6.954;2022-08-19T02:03:32;5.60;;;5.10;;
6269;SDS011;3168;51.684;6.954;2022-08-19T02:05:58;4.10;;;3.80;;
6269;SDS011;3168;51.684;6.954;2022-08-19T02:08:23;5.00;;;4.70;;
6269;SDS011;3168;51.684;6.954;2022-08-19T02:10:49;5.97;;;5.47;;
6269;SDS011;3168;51.684;6.954;2022-08-19T02:13:15;4.80;;;4.40;;
6269;SDS011;3168;51.684;6.954;2022-08-19T02:15:41;4.47;;;4.13;;
6269;SDS011;3168;51.684;6.954;2022-08-19T02:18:07;5.63;;;5.13;;
6269;SDS011;3168;51.684;6.954;2022-08-19T02:20:33;6.50;;;5.90;;
6269;SDS011;3168;51.684;6.954;2022-08-19T02:22:59;6.73;;;5.47;;
6269;SDS011;3168;51.684;6.954;2022-08-19T02:25:24;4.90;;;4.60;;
6269;SDS011;3168;51.684;6.954;2022-08-19T02:27:50;5.60;;;4.20;;
6269;SDS011;3168;51.684;6.954;2022-08-19T02:30:16;5.17;;;4.80;;
6269;SDS011;3168;51.684;6.954;2022-08-19T02:32:42;5.33;;;4.83;;
6269;SDS011;3168;51.684;6.954;2022-08-19T02:35:08;5.20;;;4.80;;
6269;SDS011;3168;51.684;6.954;2022-08-19T02:37:34;5.17;;;4.67;;
6269;SDS011;3168;51.684;6.954;2022-08-19T02:40:07;4.97;;;4.60;;
6269;SDS011;3168;51.684;6.954;2022-08-19T02:42:33;6.17;;;5.20;;
6269;SDS011;3168;51.684;6.954;2022-08-19T02:44:58;5.30;;;4.90;;
6269;SDS011;3168;51.684;6.954;2022-08-19T02:47:24;4.60;;;4.33;;
6269;SDS011;3168;51.684;6.954;2022-08-19T02:49:51;4.03;;;3.73;;
6269;SDS011;3168;51.684;6.954;2022-08-19T02:52:17;15.33;;;4.53;;
6269;SDS011;3168;51.684;6.954;2022-08-19T02:54:43;3.60;;;3.50;;
6269;SDS011;3168;51.684;6.954;2022-08-19T02:57:08;3.83;;;3.53;;
6269;SDS011;3168;51.684;6.954;2022-08-19T02:59:34;5.03;;;4.73;;
6269;SDS011;3168;51.684;6.954;2022-08-19T03:02:00;4.70;;;4.30;;
6269;SDS011;3168;51.684;6.954;2022-08-19T03:04:26;4.80;;;4.60;;
6269;SDS011;3168;51.684;6.954;2022-08-19T03:06:52;4.73;;;4.53;;
6269;SDS011;3168;51.684;6.954;2022-08-19T03:09:18;4.50;;;4.23;;
6269;SDS011;3168;51.684;6.954;2022-08-19T03:11:43;6.00;;;5.00;;
6269;SDS011;3168;51.684;6.954;2022-08-19T03:14:09;5.10;;;4.80;;
6269;SDS011;3168;51.684;6.954;2022-08-19T03:16:40;4.30;;;4.00;;
6269;SDS011;3168;51.684;6.954;2022-08-19T03:19:05;5.67;;;5.23;;
6269;SDS011;3168;51.684;6.954;2022-08-19T03:21:32;3.83;;;3.63;;
6269;SDS011;3168;51.684;6.954;2022-08-19T03:23:57;4.00;;;3.80;;
6269;SDS011;3168;51.684;6.954;2022-08-19T03:26:22;4.50;;;4.20;;
6269;SDS011;3168;51.684;6.954;2022-08-19T03:28:48;4.67;;;4.30;;
6269;SDS011;3168;51.684;6.954;2022-08-19T03:31:14;4.60;;;4.30;;
6269;SDS011;3168;51.684;6.954;2022-08-19T03:33:40;4.63;;;4.30;;
6269;SDS011;3168;51.684;6.954;2022-08-19T03:36:10;5.63;;;5.13;;
6269;SDS011;3168;51.684;6.954;2022-08-19T03:38:37;4.27;;;4.00;;
6269;SDS011;3168;51.684;6.954;2022-08-19T03:41:03;5.13;;;4.83;;
6269;SDS011;3168;51.684;6.954;2022-08-19T03:43:28;4.93;;;4.50;;
6269;SDS011;3168;51.684;6.954;2022-08-19T03:46:00;5.63;;;4.97;;
6269;SDS011;3168;51.684;6.954;2022-08-19T03:48:28;4.70;;;4.40;;
6269;SDS011;3168;51.684;6.954;2022-08-19T03:50:53;4.70;;;4.33;;
6269;SDS011;3168;51.684;6.954;2022-08-19T03:53:19;4.57;;;4.33;;
6269;SDS011;3168;51.684;6.954;2022-08-19T03:55:45;4.60;;;4.27;;
6269;SDS011;3168;51.684;6.954;2022-08-19T03:58:11;5.70;;;5.30;;
6269;SDS011;3168;51.684;6.954;2022-08-19T04:00:37;5.50;;;5.00;;
6269;SDS011;3168;51.684;6.954;2022-08-19T04:03:02;5.47;;;5.17;;
6269;SDS011;3168;51.684;6.954;2022-08-19T04:05:28;8.60;;;5.47;;
6269;SDS011;3168;51.684;6.954;2022-08-19T04:07:54;4.47;;;4.17;;
6269;SDS011;3168;51.684;6.954;2022-08-19T04:10:20;4.30;;;4.00;;
6269;SDS011;3168;51.684;6.954;2022-08-19T04:12:46;13.40;;;5.13;;
6269;SDS011;3168;51.684;6.954;2022-08-19T04:15:12;4.40;;;4.07;;
6269;SDS011;3168;51.684;6.954;2022-08-19T04:17:37;3.53;;;3.33;;
6269;SDS011;3168;51.684;6.954;2022-08-19T04:20:04;5.17;;;4.87;;
6269;SDS011;3168;51.684;6.954;2022-08-19T04:22:30;4.57;;;4.27;;
6269;SDS011;3168;51.684;6.954;2022-08-19T04:24:56;3.70;;;3.60;;
6269;SDS011;3168;51.684;6.954;2022-08-19T04:27:21;4.93;;;4.53;;
6269;SDS011;3168;51.684;6.954;2022-08-19T04:29:47;4.60;;;4.30;;
6269;SDS011;3168;51.684;6.954;2022-08-19T04:32:13;6.30;;;5.80;;
6269;SDS011;3168;51.684;6.954;2022-08-19T04:34:39;3.93;;;3.73;;
6269;SDS011;3168;51.684;6.954;2022-08-19T04:37:05;4.93;;;4.50;;
6269;SDS011;3168;51.684;6.954;2022-08-19T04:39:31;4.33;;;4.03;;
6269;SDS011;3168;51.684;6.954;2022-08-19T04:42:02;4.80;;;4.50;;
6269;SDS011;3168;51.684;6.954;2022-08-19T04:44:35;5.13;;;4.50;;
6269;SDS011;3168;51.684;6.954;2022-08-19T04:47:00;4.63;;;4.33;;
6269;SDS011;3168;51.684;6.954;2022-08-19T04:49:27;5.80;;;5.10;;
6269;SDS011;3168;51.684;6.954;2022-08-19T04:51:53;4.60;;;4.30;;
6269;SDS011;3168;51.684;6.954;2022-08-19T04:54:18;4.57;;;4.27;;
6269;SDS011;3168;51.684;6.954;2022-08-19T04:56:44;4.20;;;3.87;;
6269;SDS011;3168;51.684;6.954;2022-08-19T04:59:10;4.60;;;4.40;;
6269;SDS011;3168;51.684;6.954;2022-08-19T05:01:36;4.90;;;4.50;;
6269;SDS011;3168;51.684;6.954;2022-08-19T05:04:02;5.67;;;5.17;;
6269;SDS011;3168;51.684;6.954;2022-08-19T05:06:28;4.53;;;4.10;;
6269;SDS011;3168;51.684;6.954;2022-08-19T05:08:54;5.57;;;5.17;;
6269;SDS011;3168;51.684;6.954;2022-08-19T05:11:22;5.07;;;4.63;;
6269;SDS011;3168;51.684;6.954;2022-08-19T05:13:47;5.83;;;5.33;;
6269;SDS011;3168;51.684;6.954;2022-08-19T05:16:12;7.23;;;5.30;;
6269;SDS011;3168;51.684;6.954;2022-08-19T05:18:39;5.80;;;5.20;;
6269;SDS011;3168;51.684;6.954;2022-08-19T05:21:11;5.70;;;5.30;;
6269;SDS011;3168;51.684;6.954;2022-08-19T05:23:42;6.07;;;5.47;;
6269;SDS011;3168;51.684;6.954;2022-08-19T05:26:08;7.10;;;6.40;;
6269;SDS011;3168;51.684;6.954;2022-08-19T05:28:34;8.17;;;6.93;;
6269;SDS011;3168;51.684;6.954;2022-08-19T05:31:00;7.17;;;6.53;;
6269;SDS011;3168;51.684;6.954;2022-08-19T05:33:25;9.70;;;6.77;;
6269;SDS011;3168;51.684;6.954;2022-08-19T05:35:51;6.40;;;5.80;;
6269;SDS011;3168;51.684;6.954;2022-08-19T05:38:18;4.80;;;4.50;;
6269;SDS011;3168;51.684;6.954;2022-08-19T05:40:43;5.63;;;5.20;;
6269;SDS011;3168;51.684;6.954;2022-08-19T05:43:12;6.50;;;5.90;;
6269;SDS011;3168;51.684;6.954;2022-08-19T05:45:39;26.00;;;7.40;;
6269;SDS011;3168;51.684;6.954;2022-08-19T05:48:24;6.13;;;5.60;;
6269;SDS011;3168;51.684;6.954;2022-08-19T05:50:50;5.83;;;5.23;;
6269;SDS011;3168;51.684;6.954;2022-08-19T05:53:16;6.50;;;6.00;;
6269;SDS011;3168;51.684;6.954;2022-08-19T05:55:42;5.27;;;4.87;;
6269;SDS011;3168;51.684;6.954;2022-08-19T05:58:08;5.70;;;5.33;;
6269;SDS011;3168;51.684;6.954;2022-08-19T06:00:34;5.70;;;5.20;;
6269;SDS011;3168;51.684;6.954;2022-08-19T06:02:59;5.93;;;5.43;;
6269;SDS011;3168;51.684;6.954;2022-08-19T06:05:25;8.00;;;6.53;;
6269;SDS011;3168;51.684;6.954;2022-08-19T06:07:51;5.50;;;5.03;;
6269;SDS011;3168;51.684;6.954;2022-08-19T06:10:17;6.37;;;5.87;;
6269;SDS011;3168;51.684;6.954;2022-08-19T06:12:43;8.30;;;7.13;;
6269;SDS011;3168;51.684;6.954;2022-08-19T06:15:10;6.97;;;6.37;;
6269;SDS011;3168;51.684;6.954;2022-08-19T06:17:35;11.63;;;6.60;;
6269;SDS011;3168;51.684;6.954;2022-08-19T06:20:05;10.30;;;5.50;;
6269;SDS011;3168;51.684;6.954;2022-08-19T06:22:30;5.50;;;5.10;;
6269;SDS011;3168;51.684;6.954;2022-08-19T06:24:56;5.83;;;5.43;;
6269;SDS011;3168;51.684;6.954;2022-08-19T06:27:22;9.77;;;7.37;;
6269;SDS011;3168;51.684;6.954;2022-08-19T06:29:48;7.40;;;6.60;;
6269;SDS011;3168;51.684;6.954;2022-08-19T06:32:14;6.78;;;6.10;;
6269;SDS011;3168;51.684;6.954;2022-08-19T06:34:39;13.03;;;7.10;;
6269;SDS011;3168;51.684;6.954;2022-08-19T06:37:05;8.00;;;6.80;;
6269;SDS011;3168;51.684;6.954;2022-08-19T06:39:33;9.17;;;7.77;;
6269;SDS011;3168;51.684;6.954;2022-08-19T06:41:58;7.80;;;6.63;;
6269;SDS011;3168;51.684;6.954;2022-08-19T06:44:23;8.23;;;7.53;;
6269;SDS011;3168;51.684;6.954;2022-08-19T06:46:48;8.40;;;7.50;;
6269;SDS011;3168;51.684;6.954;2022-08-19T06:49:15;16.83;;;9.90;;
6269;SDS011;3168;51.684;6.954;2022-08-19T06:51:41;10.00;;;8.07;;
6269;SDS011;3168;51.684;6.954;2022-08-19T06:54:06;9.57;;;8.60;;
6269;SDS011;3168;51.684;6.954;2022-08-19T06:56:32;9.90;;;7.70;;
6269;SDS011;3168;51.684;6.954;2022-08-19T06:59:01;8.40;;;7.60;;
6269;SDS011;3168;51.684;6.954;2022-08-19T07:01:25;7.50;;;6.80;;
6269;SDS011;3168;51.684;6.954;2022-08-19T07:03:51;8.47;;;7.43;;
6269;SDS011;3168;51.684;6.954;2022-08-19T07:06:17;10.80;;;8.80;;
6269;SDS011;3168;51.684;6.954;2022-08-19T07:08:44;8.57;;;7.90;;
6269;SDS011;3168;51.684;6.954;2022-08-19T07:11:09;8.57;;;7.67;;
6269;SDS011;3168;51.684;6.954;2022-08-19T07:13:35;10.60;;;7.90;;
6269;SDS011;3168;51.684;6.954;2022-08-19T07:16:02;11.73;;;8.63;;
6269;SDS011;3168;51.684;6.954;2022-08-19T07:18:27;9.53;;;7.30;;
6269;SDS011;3168;51.684;6.954;2022-08-19T07:21:01;8.50;;;6.83;;
6269;SDS011;3168;51.684;6.954;2022-08-19T07:23:19;8.17;;;6.87;;
6269;SDS011;3168;51.684;6.954;2022-08-19T07:25:44;5.90;;;5.43;;
6269;SDS011;3168;51.684;6.954;2022-08-19T07:28:10;7.37;;;6.73;;
6269;SDS011;3168;51.684;6.954;2022-08-19T07:30:36;7.37;;;5.13;;
6269;SDS011;3168;51.684;6.954;2022-08-19T07:33:02;7.40;;;6.80;;
6269;SDS011;3168;51.684;6.954;2022-08-19T07:35:28;7.37;;;6.60;;
6269;SDS011;3168;51.684;6.954;2022-08-19T07:37:54;15.27;;;8.67;;
6269;SDS011;3168;51.684;6.954;2022-08-19T07:40:20;8.73;;;6.80;;
6269;SDS011;3168;51.684;6.954;2022-08-19T07:42:46;7.90;;;7.20;;
6269;SDS011;3168;51.684;6.954;2022-08-19T07:45:12;9.40;;;7.40;;
6269;SDS011;3168;51.684;6.954;2022-08-19T07:47:37;10.80;;;7.73;;
6269;SDS011;3168;51.684;6.954;2022-08-19T07:50:05;8.73;;;7.67;;
6269;SDS011;3168;51.684;6.954;2022-08-19T07:52:30;8.07;;;7.37;;
6269;SDS011;3168;51.684;6.954;2022-08-19T07:54:56;9.10;;;7.37;;
6269;SDS011;3168;51.684;6.954;2022-08-19T07:57:22;9.40;;;7.30;;
6269;SDS011;3168;51.684;6.954;2022-08-19T07:59:48;8.70;;;7.30;;
6269;SDS011;3168;51.684;6.954;2022-08-19T08:02:14;7.83;;;7.13;;
6269;SDS011;3168;51.684;6.954;2022-08-19T08:04:39;12.17;;;8.03;;
6269;SDS011;3168;51.684;6.954;2022-08-19T08:07:25;7.53;;;6.80;;
6269;SDS011;3168;51.684;6.954;2022-08-19T08:09:57;12.27;;;9.17;;
6269;SDS011;3168;51.684;6.954;2022-08-19T08:12:24;7.47;;;6.67;;
6269;SDS011;3168;51.684;6.954;2022-08-19T08:14:50;10.70;;;8.37;;
6269;SDS011;3168;51.684;6.954;2022-08-19T08:17:15;9.83;;;7.63;;
6269;SDS011;3168;51.684;6.954;2022-08-19T08:19:41;14.80;;;7.30;;
6269;SDS011;3168;51.684;6.954;2022-08-19T08:22:07;8.33;;;7.50;;
6269;SDS011;3168;51.684;6.954;2022-08-19T08:24:32;15.37;;;9.00;;
6269;SDS011;3168;51.684;6.954;2022-08-19T08:26:58;10.10;;;7.30;;
6269;SDS011;3168;51.684;6.954;2022-08-19T08:29:25;9.53;;;8.03;;
6269;SDS011;3168;51.684;6.954;2022-08-19T08:31:50;11.33;;;7.97;;
6269;SDS011;3168;51.684;6.954;2022-08-19T08:34:16;8.17;;;7.33;;
6269;SDS011;3168;51.684;6.954;2022-08-19T08:36:44;8.93;;;7.47;;
6269;SDS011;3168;51.684;6.954;2022-08-19T08:39:09;8.00;;;7.00;;
6269;SDS011;3168;51.684;6.954;2022-08-19T08:41:37;10.97;;;7.40;;
6269;SDS011;3168;51.684;6.954;2022-08-19T08:44:00;6.47;;;5.87;;
6269;SDS011;3168;51.684;6.954;2022-08-19T08:46:29;8.97;;;7.90;;
6269;SDS011;3168;51.684;6.954;2022-08-19T08:48:56;8.63;;;7.93;;
6269;SDS011;3168;51.684;6.954;2022-08-19T08:51:40;8.93;;;8.03;;
6269;SDS011;3168;51.684;6.954;2022-08-19T08:54:05;12.20;;;9.73;;
6269;SDS011;3168;51.684;6.954;2022-08-19T08:56:30;8.73;;;7.90;;
6269;SDS011;3168;51.684;6.954;2022-08-19T08:58:58;14.57;;;10.37;;
6269;SDS011;3168;51.684;6.954;2022-08-19T09:01:24;11.87;;;9.00;;
6269;SDS011;3168;51.684;6.954;2022-08-19T09:03:50;9.67;;;8.60;;
6269;SDS011;3168;51.684;6.954;2022-08-19T09:06:23;11.30;;;8.63;;
6269;SDS011;3168;51.684;6.954;2022-08-19T09:09:04;17.10;;;11.57;;
6269;SDS011;3168;51.684;6.954;2022-08-19T09:14:38;15.10;;;6.97;;
6269;SDS011;3168;51.684;6.954;2022-08-19T09:17:03;9.57;;;6.93;;
6269;SDS011;3168;51.684;6.954;2022-08-19T09:19:29;9.10;;;7.70;;
6269;SDS011;3168;51.684;6.954;2022-08-19T09:21:54;9.53;;;8.23;;
6269;SDS011;3168;51.684;6.954;2022-08-19T09:24:20;8.40;;;6.00;;
6269;SDS011;3168;51.684;6.954;2022-08-19T09:26:46;8.97;;;6.60;;
6269;SDS011;3168;51.684;6.954;2022-08-19T09:29:12;7.87;;;7.07;;
6269;SDS011;3168;51.684;6.954;2022-08-19T09:31:37;8.57;;;7.70;;
6269;SDS011;3168;51.684;6.954;2022-08-19T09:34:04;9.00;;;7.10;;
6269;SDS011;3168;51.684;6.954;2022-08-19T09:36:30;8.77;;;7.60;;
6269;SDS011;3168;51.684;6.954;2022-08-19T09:38:56;6.40;;;5.90;;
6269;SDS011;3168;51.684;6.954;2022-08-19T09:41:22;8.57;;;6.37;;
6269;SDS011;3168;51.684;6.954;2022-08-19T09:43:48;5.50;;;5.00;;
6269;SDS011;3168;51.684;6.954;2022-08-19T09:46:13;7.90;;;7.10;;
6269;SDS011;3168;51.684;6.954;2022-08-19T09:48:39;8.97;;;6.67;;
6269;SDS011;3168;51.684;6.954;2022-08-19T09:51:06;7.17;;;6.50;;
6269;SDS011;3168;51.684;6.954;2022-08-19T09:53:31;9.23;;;8.00;;
6269;SDS011;3168;51.684;6.954;2022-08-19T09:55:57;10.50;;;8.27;;
6269;SDS011;3168;51.684;6.954;2022-08-19T09:58:23;7.40;;;6.80;;
6269;SDS011;3168;51.684;6.954;2022-08-19T10:00:49;10.00;;;8.47;;
6269;SDS011;3168;51.684;6.954;2022-08-19T10:03:14;9.50;;;6.87;;
6269;SDS011;3168;51.684;6.954;2022-08-19T10:05:40;7.93;;;6.90;;
6269;SDS011;3168;51.684;6.954;2022-08-19T10:08:12;7.57;;;6.87;;
6269;SDS011;3168;51.684;6.954;2022-08-19T10:10:38;7.53;;;6.90;;
6269;SDS011;3168;51.684;6.954;2022-08-19T10:13:04;8.30;;;7.50;;
6269;SDS011;3168;51.684;6.954;2022-08-19T10:15:30;7.97;;;7.27;;
6269;SDS011;3168;51.684;6.954;2022-08-19T10:17:56;10.47;;;7.80;;
6269;SDS011;3168;51.684;6.954;2022-08-19T10:20:21;8.10;;;7.43;;
6269;SDS011;3168;51.684;6.954;2022-08-19T10:22:47;11.00;;;7.90;;
6269;SDS011;3168;51.684;6.954;2022-08-19T10:25:13;9.70;;;7.60;;
6269;SDS011;3168;51.684;6.954;2022-08-19T10:27:39;9.43;;;8.30;;
6269;SDS011;3168;51.684;6.954;2022-08-19T10:30:05;7.30;;;6.63;;
6269;SDS011;3168;51.684;6.954;2022-08-19T10:32:32;8.70;;;7.37;;
6269;SDS011;3168;51.684;6.954;2022-08-19T10:34:58;9.00;;;7.90;;
6269;SDS011;3168;51.684;6.954;2022-08-19T10:37:23;9.37;;;7.90;;
6269;SDS011;3168;51.684;6.954;2022-08-19T10:39:50;10.50;;;8.10;;
6269;SDS011;3168;51.684;6.954;2022-08-19T10:42:15;7.93;;;7.20;;
6269;SDS011;3168;51.684;6.954;2022-08-19T10:44:41;10.33;;;8.07;;
6269;SDS011;3168;51.684;6.954;2022-08-19T10:47:07;10.87;;;7.37;;
6269;SDS011;3168;51.684;6.954;2022-08-19T10:49:33;9.70;;;8.60;;
6269;SDS011;3168;51.684;6.954;2022-08-19T10:51:59;17.40;;;9.63;;
6269;SDS011;3168;51.684;6.954;2022-08-19T10:54:31;10.67;;;8.70;;
6269;SDS011;3168;51.684;6.954;2022-08-19T10:57:00;10.33;;;7.80;;
6269;SDS011;3168;51.684;6.954;2022-08-19T10:59:28;14.33;;;9.87;;
6269;SDS011;3168;51.684;6.954;2022-08-19T11:01:54;17.93;;;10.30;;
6269;SDS011;3168;51.684;6.954;2022-08-19T11:04:19;13.40;;;11.00;;
6269;SDS011;3168;51.684;6.954;2022-08-19T11:06:45;11.40;;;9.97;;
6269;SDS011;3168;51.684;6.954;2022-08-19T11:09:11;10.23;;;9.23;;
6269;SDS011;3168;51.684;6.954;2022-08-19T11:11:37;11.97;;;8.90;;
6269;SDS011;3168;51.684;6.954;2022-08-19T11:14:02;15.37;;;9.73;;
6269;SDS011;3168;51.684;6.954;2022-08-19T11:16:28;13.30;;;10.20;;
6269;SDS011;3168;51.684;6.954;2022-08-19T11:18:56;10.57;;;9.50;;
6269;SDS011;3168;51.684;6.954;2022-08-19T11:21:22;11.83;;;9.83;;
6269;SDS011;3168;51.684;6.954;2022-08-19T11:23:47;12.13;;;9.67;;
6269;SDS011;3168;51.684;6.954;2022-08-19T11:26:12;9.10;;;8.23;;
6269;SDS011;3168;51.684;6.954;2022-08-19T11:28:38;17.30;;;9.87;;
6269;SDS011;3168;51.684;6.954;2022-08-19T11:31:04;9.53;;;8.33;;
6269;SDS011;3168;51.684;6.954;2022-08-19T11:33:30;8.53;;;7.77;;
6269;SDS011;3168;51.684;6.954;2022-08-19T11:35:57;13.23;;;8.87;;
6269;SDS011;3168;51.684;6.954;2022-08-19T11:38:22;12.77;;;8.83;;
6269;SDS011;3168;51.684;6.954;2022-08-19T11:40:54;12.97;;;9.77;;
6269;SDS011;3168;51.684;6.954;2022-08-19T11:43:19;9.27;;;8.33;;
6269;SDS011;3168;51.684;6.954;2022-08-19T11:45:45;11.27;;;8.07;;
6269;SDS011;3168;51.684;6.954;2022-08-19T11:48:10;11.37;;;9.23;;
6269;SDS011;3168;51.684;6.954;2022-08-19T11:50:36;8.93;;;7.90;;
6269;SDS011;3168;51.684;6.954;2022-08-19T11:53:02;9.00;;;8.13;;
6269;SDS011;3168;51.684;6.954;2022-08-19T11:55:28;7.90;;;6.90;;
6269;SDS011;3168;51.684;6.954;2022-08-19T11:57:54;7.90;;;7.10;;
6269;SDS011;3168;51.684;6.954;2022-08-19T12:00:20;7.47;;;6.77;;
6269;SDS011;3168;51.684;6.954;2022-08-19T12:02:46;6.60;;;5.20;;
6269;SDS011;3168;51.684;6.954;2022-08-19T12:05:12;5.83;;;5.43;;
6269;SDS011;3168;51.684;6.954;2022-08-19T12:07:38;6.57;;;5.97;;
6269;SDS011;3168;51.684;6.954;2022-08-19T12:10:03;4.73;;;4.40;;
6269;SDS011;3168;51.684;6.954;2022-08-19T12:12:29;5.87;;;5.47;;
6269;SDS011;3168;51.684;6.954;2022-08-19T12:14:55;5.80;;;5.40;;
6269;SDS011;3168;51.684;6.954;2022-08-19T12:17:23;5.03;;;4.63;;
6269;SDS011;3168;51.684;6.954;2022-08-19T12:19:48;4.90;;;4.43;;
6269;SDS011;3168;51.684;6.954;2022-08-19T12:22:14;4.03;;;3.83;;
6269;SDS011;3168;51.684;6.954;2022-08-19T12:24:39;4.83;;;4.53;;
6269;SDS011;3168;51.684;6.954;2022-08-19T12:27:05;3.73;;;3.53;;
6269;SDS011;3168;51.684;6.954;2022-08-19T12:29:31;3.73;;;3.60;;
6269;SDS011;3168;51.684;6.954;2022-08-19T12:31:58;4.07;;;3.40;;
6269;SDS011;3168;51.684;6.954;2022-08-19T12:34:23;3.17;;;2.97;;
6269;SDS011;3168;51.684;6.954;2022-08-19T12:36:49;3.93;;;3.73;;
6269;SDS011;3168;51.684;6.954;2022-08-19T12:39:15;2.67;;;2.57;;
6269;SDS011;3168;51.684;6.954;2022-08-19T12:41:40;3.37;;;3.13;;
6269;SDS011;3168;51.684;6.954;2022-08-19T12:44:06;3.40;;;3.30;;
6269;SDS011;3168;51.684;6.954;2022-08-19T12:46:32;3.50;;;3.37;;
6269;SDS011;3168;51.684;6.954;2022-08-19T12:48:58;3.40;;;3.20;;
6269;SDS011;3168;51.684;6.954;2022-08-19T12:51:24;3.20;;;2.87;;
6269;SDS011;3168;51.684;6.954;2022-08-19T12:53:50;3.60;;;3.30;;
6269;SDS011;3168;51.684;6.954;2022-08-19T12:56:16;2.73;;;2.53;;
6269;SDS011;3168;51.684;6.954;2022-08-19T12:58:42;2.30;;;2.20;;
6269;SDS011;3168;51.684;6.954;2022-08-19T13:01:09;2.30;;;2.20;;
6269;SDS011;3168;51.684;6.954;2022-08-19T13:03:34;3.70;;;2.80;;
6269;SDS011;3168;51.684;6.954;2022-08-19T13:06:00;4.30;;;2.43;;
6269;SDS011;3168;51.684;6.954;2022-08-19T13:08:26;2.77;;;2.67;;
6269;SDS011;3168;51.684;6.954;2022-08-19T13:10:52;3.80;;;3.60;;
6269;SDS011;3168;51.684;6.954;2022-08-19T13:13:18;3.40;;;3.20;;
6269;SDS011;3168;51.684;6.954;2022-08-19T13:15:44;3.03;;;2.83;;
6269;SDS011;3168;51.684;6.954;2022-08-19T13:18:09;3.13;;;2.93;;
6269;SDS011;3168;51.684;6.954;2022-08-19T13:20:36;2.70;;;2.60;;
6269;SDS011;3168;51.684;6.954;2022-08-19T13:23:01;5.13;;;3.17;;
6269;SDS011;3168;51.684;6.954;2022-08-19T13:25:27;2.07;;;1.97;;
6269;SDS011;3168;51.684;6.954;2022-08-19T13:27:53;3.03;;;2.83;;
6269;SDS011;3168;51.684;6.954;2022-08-19T13:30:19;2.53;;;2.43;;
6269;SDS011;3168;51.684;6.954;2022-08-19T13:32:51;4.90;;;3.57;;
6269;SDS011;3168;51.684;6.954;2022-08-19T13:35:23;4.00;;;3.80;;
6269;SDS011;3168;51.684;6.954;2022-08-19T13:37:48;2.60;;;2.50;;
6269;SDS011;3168;51.684;6.954;2022-08-19T13:40:16;3.07;;;2.97;;
6269;SDS011;3168;51.684;6.954;2022-08-19T13:42:41;2.77;;;2.67;;
6269;SDS011;3168;51.684;6.954;2022-08-19T13:45:06;3.23;;;3.10;;
6269;SDS011;3168;51.684;6.954;2022-08-19T13:47:33;2.90;;;2.80;;
6269;SDS011;3168;51.684;6.954;2022-08-19T13:50:00;2.17;;;2.17;;
6269;SDS011;3168;51.684;6.954;2022-08-19T13:52:25;3.23;;;2.97;;
6269;SDS011;3168;51.684;6.954;2022-08-19T13:54:51;2.87;;;2.77;;
6269;SDS011;3168;51.684;6.954;2022-08-19T13:57:17;5.53;;;3.47;;
6269;SDS011;3168;51.684;6.954;2022-08-19T13:59:43;3.20;;;3.10;;
6269;SDS011;3168;51.684;6.954;2022-08-19T14:02:08;5.80;;;3.73;;
6269;SDS011;3168;51.684;6.954;2022-08-19T14:04:34;3.33;;;3.13;;
6269;SDS011;3168;51.684;6.954;2022-08-19T14:07:00;4.13;;;3.83;;
6269;SDS011;3168;51.684;6.954;2022-08-19T14:09:26;3.73;;;3.57;;
6269;SDS011;3168;51.684;6.954;2022-08-19T14:11:52;3.70;;;3.50;;
6269;SDS011;3168;51.684;6.954;2022-08-19T14:14:17;4.90;;;4.70;;
6269;SDS011;3168;51.684;6.954;2022-08-19T14:16:43;5.00;;;4.80;;
6269;SDS011;3168;51.684;6.954;2022-08-19T14:19:09;4.90;;;4.60;;
6269;SDS011;3168;51.684;6.954;2022-08-19T14:21:36;5.20;;;4.80;;
6269;SDS011;3168;51.684;6.954;2022-08-19T14:24:02;5.77;;;5.27;;
6269;SDS011;3168;51.684;6.954;2022-08-19T14:26:28;5.10;;;4.83;;
6269;SDS011;3168;51.684;6.954;2022-08-19T14:28:54;5.00;;;4.70;;
6269;SDS011;3168;51.684;6.954;2022-08-19T14:31:19;4.87;;;4.53;;
6269;SDS011;3168;51.684;6.954;2022-08-19T14:33:46;5.27;;;4.97;;
6269;SDS011;3168;51.684;6.954;2022-08-19T14:36:11;4.87;;;4.63;;
6269;SDS011;3168;51.684;6.954;2022-08-19T14:38:37;5.63;;;4.87;;
6269;SDS011;3168;51.684;6.954;2022-08-19T14:41:07;5.60;;;5.03;;
6269;SDS011;3168;51.684;6.954;2022-08-19T14:43:33;5.40;;;4.90;;
6269;SDS011;3168;51.684;6.954;2022-08-19T14:45:59;5.47;;;4.97;;
6269;SDS011;3168;51.684;6.954;2022-08-19T14:48:24;4.33;;;4.13;;
6269;SDS011;3168;51.684;6.954;2022-08-19T14:50:50;7.93;;;6.13;;
6269;SDS011;3168;51.684;6.954;2022-08-19T14:53:16;5.33;;;4.93;;
6269;SDS011;3168;51.684;6.954;2022-08-19T14:55:43;4.47;;;4.27;;
6269;SDS011;3168;51.684;6.954;2022-08-19T14:58:08;10.13;;;4.97;;
6269;SDS011;3168;51.684;6.954;2022-08-19T15:00:34;3.93;;;3.83;;
6269;SDS011;3168;51.684;6.954;2022-08-19T15:03:00;7.03;;;4.57;;
6269;SDS011;3168;51.684;6.954;2022-08-19T15:05:26;5.17;;;4.97;;
6269;SDS011;3168;51.684;6.954;2022-08-19T15:07:52;4.37;;;4.07;;
6269;SDS011;3168;51.684;6.954;2022-08-19T15:10:17;4.63;;;4.33;;